Дата Время Давление Темп. Влажн. Скор.ветра Напр.ветра Макс.ветер Осадки/час Осадки
25.11.20 04:00 743 0.5 94.6 0.9 242 2.4 0 0
25.11.20 03:00 743 0.3 94 1.1 231 3 0 0
25.11.20 02:00 742.9 0.6 93.4 0.8 329 3.8 0 0
25.11.20 01:00 742.9 1.2 93.2 0.9 310 3.2 0 0
25.11.20 00:00 742.7 1.4 93.7 1 349 3.1 0 0.8
24.11.20 23:00 742.3 1.6 94.3 0.8 342 5 0 0.8
24.11.20 22:00 742.2 1.6 95.2 1.1 286 3.7 0 0.8
24.11.20 21:00 742 1.5 95.1 0.7 230 3 0 0.8
24.11.20 20:00 741.8 1.5 95 1.1 344 4.1 0 0.8
24.11.20 19:00 741.4 1.6 94.8 1.3 9 3.5 0.2 0.8
24.11.20 18:00 741.1 1.8 93.8 1.3 255 3.8 0.4 0.6
24.11.20 17:00 740.9 2.3 93 1.6 225 3.4 0 0.2
24.11.20 16:00 740.8 2.6 91.7 1.2 224 3 0 0.2
24.11.20 15:00 740.9 4.3 85 1.1 209 2.8 0 0.2
24.11.20 14:00 740.5 2.6 92.9 1.3 276 3.8 0 0.2
24.11.20 13:00 740.3 3.1 95.1 1.2 224 3.2 0 0.2
24.11.20 12:00 740.4 3 96.5 0.9 314 4.1 0 0.2
24.11.20 11:00 740 3.4 96.8 1.5 241 4.3 0 0.2
24.11.20 10:00 740 2.8 96.5 1.1 243 3.3 0 0.2
24.11.20 09:00 740.1 2.5 96.4 1.2 236 3.4 0 0.2
24.11.20 08:00 739.8 2.5 95.1 1.4 226 3.1 0 0.2
24.11.20 07:00 739.7 2.5 95 1 220 2.9 0.2 0.2
24.11.20 06:00 739.9 2.6 96.5 1.2 211 4.3 0 0
24.11.20 05:00 740 2.7 94.8 1.7 210 3.4 0 0